Aviation Digital Data Service (ADDS)

Output produced by METARs form (0811 UTC 24 May 2018)
found at http://www.aviationweather.gov/adds/metars/
 
LIMA 240750Z 00000KT CAVOK 20/12 Q1018
LIMG 240750Z 00000KT 9999 FEW030 21/16 Q1018
LIEA 240750Z 04004KT 360V080 CAVOK 21/14 Q1019
TAF LIEA 240500Z 2406/2506 VRB06KT CAVOK 
     BECMG 2408/2410 29010KT 
     BECMG 2415/2417 04008KT
       
LIBA 240755Z 30014KT 9999 SCT025 22/17 Q1015 RMK SCT VIS MIN 9999 WIND THR11 30013KT WIND THR29 /////KT BLU
TAF LIBA 240500Z 2406/2415 29012KT 9999 FEW030 
     TEMPO 2410/2414 FEW025CB SCT030
       
LIMW 240750Z AUTO VRB02KT 9999 NCD 18/10 Q1019
TAF LIMW 240500Z 2406/2415 VRB05KT 9999 SCT090 
     BECMG 2409/2411 10012KT
       
LIPA 240755Z 04007KT 9999 FEW040TCU SCT050 23/19 Q1016 RMK BKN VIS MIN 9999 WIND THR05 /////KT WIND THR23 /////KT A3002 BLU
TAF LIPA 240500Z 2406/2415 04008KT 9999 SCT030 BKN050 
     TEMPO 2406/2410 3000 TSRA FEW020CB BKN030
       
LIME 240750Z 21002KT CAVOK 21/14 Q1018 NOSIG
TAF LIME 240500Z 2406/2506 VRB05KT 9999 BKN070
       
LIPE 240750Z 29006KT 260V330 CAVOK 22/16 Q1017
TAF LIPE 240500Z 2406/2506 VRB05KT 9999 SCT030 
     TEMPO 2412/2416 TSRA
       
LIPB 240750Z 00000KT 9999 SCT010 SCT040 BKN075 17/16 Q1019
TAF LIPB 240500Z 2406/2506 VRB05KT 9999 SCT030 
     TEMPO 2406/2409 RA 
     TEMPO 2412/2416 TSRA
       
LIMN 240755Z VRB02KT CAVOK 20/14 Q1017 RMK SKC VIS MIN 9999 BLU
TAF LIMN 240500Z 2406/2415 VRB03KT 9999 FEW030
       
LIRN 240750Z VRB02KT 9999 FEW025 23/16 Q1017 NOSIG
TAF LIRN 240500Z 2406/2506 VRB05KT 9999 SCT020 
     BECMG 2408/2410 23010KT 
     BECMG 2418/2420 VRB05KT
       
LIBR 240750Z 36007KT 9999 SCT015 21/16 Q1015
TAF AMD LIBR 240620Z 2406/2506 34012KT 9999 SCT040 
     TEMPO 2409/2413 RA
       
LICC 240750Z 19003KT 090V260 CAVOK 24/12 Q1017
TAF LICC 240500Z 2406/2506 VRB05KT 9999 SCT035 
     BECMG 2408/2410 08012KT 
     BECMG 2418/2420 VRB05KT
       
LIPC 240755Z 29009KT CAVOK 21/16 Q1016 RMK SKC VIS MIN 9999 WIND THR11 28007KT WIND THR29 /////KT BLU
TAF LIPC 240500Z 2406/2415 32008KT 9999 FEW040 
     PROB30 
     TEMPO 2412/2415 3000 SHRA FEW020CB SCT030
       
LIRA 240750Z 36004KT 330V050 CAVOK 19/15 Q1017
TAF LIRA 240500Z 2406/2506 VRB05KT 8000 SCT020 
     BECMG 2408/2410 26010KT 
     BECMG 2418/2420 VRB05KT
       
LIBC 240750Z VRB02KT CAVOK 22/15 Q1016
TAF LIBC 240702Z 2408/2506 VRB05KT 9999 SCT020 
     BECMG 2408/2410 05010KT 
     BECMG 2412/2414 24010KT 
     BECMG 2419/2421 34007KT
       
LIED 240755Z 30004KT CAVOK 20/19 Q1018 RMK FEW FEW200 VIS MIN 9999 WIND THR35 30004KT WIND THR17 /////KT BLU
TAF AMD LIED 240540Z 2406/2415 VRB03KT 1000 FG SCT005 
     BECMG 2407/2409 VRB05KT 8000 FEW010 
     BECMG 2412/2414 17012KT 9999 FEW025
       
LIEE 240750Z 30005KT 270V340 CAVOK 19/15 Q1018
TAF AMD LIEE 240537Z 2406/2506 VRB05KT 7000 NSC 
     TEMPO 2506/2507 0500 FG BKN001 
     BECMG 2409/2411 15012KT 
     BECMG 2418/2420 VRB05KT
       
LIPY 240750Z 30006KT 270V350 CAVOK 22/16 Q1016
TAF LIPY 240500Z 2406/2506 VRB05KT 9999 SCT030 
     BECMG 2408/2410 33010KT 
     BECMG 2416/2419 VRB05KT
       
LIRF 240750Z 29004KT 230V360 CAVOK 21/16 Q1017 NOSIG
TAF LIRF 240500Z 2406/2512 34007KT 9999 SCT030 
     BECMG 2408/2410 28013KT 
     BECMG 2416/2418 VRB05KT 
     BECMG 2508/2510 27013KT
       
LIMJ 240750Z 18003KT 9999 BKN018 20/17 Q1018
TAF LIMJ 240500Z 2406/2506 VRB05KT 9999 SCT060
       
LIPL 240755Z 25004KT CAVOK 21/10 Q1017 RMK SKC VIS MIN 9999 WIND THR31 23005KT WIND THR13 26004KT BLU
TAF LIPL 240500Z 2406/2415 VRB03KT 9999 SCT035 
     TEMPO 2412/2415 4000 SHRA FEW020CB SCT025
       
LIBF 240750Z 31012KT 280V340 9999 BKN025 22/17 Q1017
LIBV 240755Z 36009KT 7000 SCT007 BKN035 18/17 Q1016 RMK BKN VIS MIN 7000 WIND THR32 3610KT WIND THR14 36008KT WHT
TAF LIBV 240500Z 2406/2415 34008KT 2000 RA BKN005 SCT030 
     BECMG 2406/2409 7000 SCT010 SCT030
       
LIRM 240755Z /////KT 8000 SCT015 23/20 Q1016 RMK SCT VIS MIN 8000 WIND THR06 35002KT BLU
TAF LIRM 240500Z 2406/2415 29006KT 2000 BR FEW020 
     BECMG 2408/2410 9999 FEW030
       
LIRS 240755Z 02004KT 320V090 9999 SCT030 20/15 Q1017 RMK SCT VIS MIN 9999 WIND THR03 03004KT WIND THR21 01004KT BLU
TAF COR LIRS 240500Z 2406/2415 32006KT 9999 FEW030
       
LIBG 240750Z 02010KT 9999 SCT020 22/16 Q1015
TAF LIBG 240500Z 2406/2415 35012KT 9999 SCT030
       
LIRG 240755Z VRB01KT 9999 FEW010 20/16 Q1017 RMK SCT MON NE VERS INC ELEV SLW VIS MIN 9999 BLU
TAF LIRG 240500Z 2406/2415 27004KT CAVOK
       
LIPS 240755Z 36004KT 9999 SCT030 BKN090 22/17 Q1016 RMK BKN VIS MIN 9999 WIND THR26 /////KT WIND THR08 34004KT BLU
TAF LIPS 240500Z 2406/2415 01005KT 9999 SCT030 BKN060 
     PROB40 
     TEMPO 2406/2409 3000 TSRA FEW020CB BKN050
       
LICA 240750Z 28010KT 2500 -RA SCT010 BKN020 18/18 Q1017
TAF LICA 240500Z 2406/2506 27012KT 9999 SCT020 
     TEMPO 2406/2412 RA 
     BECMG 2418/2420 VRB05KT
       
LICD 240750Z 35006KT 330V030 CAVOK 20/16 Q1019
TAF LICD 240500Z 2406/2506 34012KT 9999 FEW020 
     BECMG 2418/2420 VRB05KT
       
LIRL 240755Z 22003KT 8000 FEW015 SCT018 21/18 Q1016 RMK BKN MON CIME INC NC VIS MIN 8000 WIND THR12 17002KT WIND THR30 /////KT WHT
TAF LIRL 240500Z 2406/2415 29006KT 9999 SCT020 
     TEMPO 2406/2409 5000 BR SCT005
       
LIBN 240755Z 36007KT 9999 SCT015 SCT020 21/17 Q1015 RMK BKN VIS MIN 9999 WIND THR14 02005KT WIND THR32 35007KT BLU
TAF LIBN 240500Z 2406/2415 33012KT 9999 SCT020 
     TEMPO 2410/2415 5000 SHRA FEW010CB BKN020
       
LIMZ 240750Z VRB02KT CAVOK 19/13 Q1019
TAF LIMZ 240500Z 2406/2506 VRB05KT CAVOK
       
LIML 240750Z VRB02KT CAVOK 22/16 Q1017 NOSIG
TAF LIML 240500Z 2406/2506 VRB05KT 9999 SCT060
       
LIMC 240750Z 35004KT 280V040 CAVOK 21/14 Q1018 NOSIG
TAF LIMC 240500Z 2406/2512 VRB05KT 9999 SCT080
       
LIPO 240750Z 22006KT CAVOK 22/16 Q1017
TAF LIPO 240500Z 2406/2506 VRB05KT 9999 SCT060
       
LIEO 240750Z 22005KT 190V260 CAVOK 23/14 Q1018
TAF LIEO 240500Z 2406/2506 23007KT CAVOK 
     BECMG 2409/2411 08010KT 
     BECMG 2418/2420 VRB05KT
       
LIPU 240600Z VRB03KT CAVOK 20/17 Q1016
LICJ 240750Z 32003KT CAVOK 20/15 Q1019
TAF LICJ 240500Z 2406/2506 VRB05KT 9999 SCT020 
     BECMG 2408/2410 03012KT 
     BECMG 2419/2421 VRB05KT
       
LIBD 240750Z 34008KT 310V010 9999 FEW015 SCT040 20/17 Q1016
TAF LIBD 240500Z 2406/2506 28008KT 9999 FEW030 
     BECMG 2408/2410 02012KT 
     BECMG 2416/2419 28008KT
       
LICG 240755Z 03003KT 8000 FEW006 19/16 Q1019 RMK FEW VIS MIN 8000 WIND THR08 03006KT WIND THR21 04003KT BLU
TAF LICG 240500Z 2406/2415 33012KT 9999 SCT008
       
LIMP 240750Z 33004KT CAVOK 22/16 Q1018
TAF LIMP 240500Z 2406/2506 VRB05KT 9999 SCT060
       
LIRQ 240750Z VRB02KT 9999 BKN015 19/16 Q1018
TAF LIRQ 240500Z 2406/2506 VRB05KT 9999 SCT050
       
LIRZ 240750Z VRB01KT 9000 BKN020 19/16 Q1018
TAF LIRZ 240500Z 2406/2506 VRB06KT 9999 SCT045
       
LIBP 240750Z VRB03KT CAVOK 23/16 Q1017
TAF LIBP 240500Z 2406/2506 VRB05KT 9999 SCT030 
     BECMG 2407/2409 03010KT 
     BECMG 2416/2418 VRB05KT 
     TEMPO 2420/2423 SHRA
       
LIMS 240755Z 03003KT 9999 FEW030 22/21 Q1016 RMK FEW VIS MIN 9999 WIND THR30 01003KT BLU
LIRP 240745Z 27006KT 9999 BKN018 19/16 Q1018 NOSIG
TAF LIRP 240500Z 2406/2506 28008KT 9999 SCT040 
     PROB30 
     TEMPO 2412/2416 3000 SHRA FEW020CB SCT040 
     BECMG 2418/2420 VRB03KT CAVOK 
     TEMPO 2500/2506 5000 BR 
     PROB30 
     TEMPO 2502/2506 0800 FG SCT003
       
LIRI 240750Z 00000KT CAVOK 22/17 Q1017
LIRE 240755Z 34003KT CAVOK 21/18 Q1016 RMK SKC VIS MIN 9999 WIND THR13 33006KT WIND THR31 31004KT BLU
TAF LIRE 240500Z 2406/2415 33005KT CAVOK
       
LICR 240750Z 36008KT 330V030 9999 FEW030 21/16 Q1017
TAF LICR 240500Z 2406/2506 01012KT 9999 SCT020
       
LIPR 240745Z 27006KT CAVOK 22/18 Q1016 RMK FEW FEW200 VIS MIN 9999 WIND THR31 28004KT BLU
TAF LIPR 240500Z 2406/2415 33008KT 9999 FEW030 
     PROB30 
     TEMPO 2412/2415 3000 SHRA FEW020CB SCT030
       
LIPI 240755Z /////KT CAVOK 25/16 Q1016 RMK SCT SCT130 VIS MIN 9999 WIND THR06 35006KT WIND THR24 /////KT BLU
TAF LIPI 240500Z 2406/2415 01008KT 9999 FEW030 SCT070 
     PROB40 
     TEMPO 2406/2410 3000 TSRA FEW020CB BKN030
       
LIPQ 240750Z 35004KT CAVOK 23/18 Q1016
TAF LIPQ 240500Z 2406/2506 VRB05KT 9999 SCT030 
     TEMPO 2408/2418 TSRA
       
LICZ 240755Z 32004KT CAVOK 25/13 Q1017 RMK SKC VIS MIN 9999 WIND THR28 26004KT WIND THR10 02003KT A3005 BLU
TAF LICZ 240500Z 2406/2415 25005KT 9999 FEW030 
     BECMG 2407/2409 09015KT
       
LIMF 240750Z 08003KT 040V140 CAVOK 20/12 Q1018
TAF LIMF 240500Z 2406/2506 VRB05KT 9999 SCT070
       
LICT 240755Z 32006KT 9999 FEW015 19/16 Q1018 RMK SCT VIS MIN 9999 WIND THR13 28006KT BLU
TAF LICT 240500Z 2406/2415 12005KT 9999 SCT010 
     BECMG 2408/2410 33015KT
       
LIPH 240750Z 35005KT 310V020 9999 SCT060 22/16 Q1016
TAF LIPH 240500Z 2406/2506 VRB05KT 9999 SCT030
       
LIRU 240750Z VRB03KT 9999 FEW025 22/17 Q1017
TAF LIRU 240500Z 2406/2415 VRB05KT 9999 FEW030 
     BECMG 2409/2411 26010KT
       
LIPZ 240750Z 36007KT 330V030 9999 SCT070 22/17 Q1016 NOSIG
TAF LIPZ 240500Z 2406/2512 VRB05KT 9999 SCT040 
     BECMG 2408/2410 16010KT 
     BECMG 2416/2419 32008KT
       
LIPX 240750Z VRB01KT CAVOK 22/16 Q1017
TAF LIPX 240500Z 2406/2415 VRB05KT 9999 BKN060 
     PROB40 
     TEMPO 2406/2412 4000 TSRA
       
LIRV 240755Z /////KT 9999 SCT015 19/15 Q1017 RMK SCT MON E SE GEN INC NC VIS MIN 9999 BLU
TAF LIRV 240500Z 2406/2415 34006KT 9999 SCT020